Disclaimer

Please do not use the information listed here in-flight or in-navigation, as they are not provided to us by the airports but are provided by volunteers, so they might be outdated.

Search


Regions


Airport information page

Radio informations:
RDO - 118.8 MHz

Airport informations:
Latitude: 38° 48' 44.00" N
Longitude: 139° 47' 14.00" E
Elevation: 86 feet - 26 meters
Operating hours: Remarks
Operating agency: Civil government, landing fees and diplomatic clearance may be required
Timezone: UTC+9
Fuel: N/A

Runway information:
09/27 - 6560 x 150 feet< - >1999 x 46 meters

Recent METARs:
RJSY 190300Z 29020G31KT 260V320 9999 R09/2000N -SHRA FEW008 SCT020 BKN040 14/12 Q1011
RJSY 190400Z 31016G26KT 9999 FEW010 SCT020 BKN030 13/10 Q1012
RJSY 190400Z 31016G26KT 9999 FEW010 SCT020 BKN030 13/10 Q1012

Airport on the map: